Time;durP1;ratioP1;P1;durP2;ratioP2;P2;SDS_P1;SDS_P2;PMS_P1;PMS_P2;Temp;Humidity;BMP_temperature;BMP_pressure;BME280_temperature;BME280_humidity;BME280_pressure;Samples;Min_cycle;Max_cycle;Signal;HPM_P1;HPM_P2
2021/09/18 00:00:53;;;;;;;12.30;8.38;;;;;;;;;;4975425;28;20408;-46
2021/09/18 00:03:20;;;;;;;12.30;8.43;;;;;;;;;;4974409;28;20426;-44
2021/09/18 00:05:47;;;;;;;11.45;8.48;;;;;;;;;;4976582;28;20042;-45
2021/09/18 00:08:14;;;;;;;12.88;8.77;;;;;;;;;;4994474;28;20042;-45
2021/09/18 00:10:41;;;;;;;11.55;8.10;;;;;;;;;;4994352;28;20062;-46
2021/09/18 00:13:08;;;;;;;10.75;7.88;;;;;;;;;;4993774;28;20035;-44
2021/09/18 00:15:34;;;;;;;11.18;8.05;;;;;;;;;;4979605;28;20042;-44
2021/09/18 00:18:01;;;;;;;10.85;7.45;;;;;;;;;;4974918;28;20042;-43
2021/09/18 00:20:28;;;;;;;11.07;8.10;;;;;;;;;;4974729;28;20488;-50
2021/09/18 00:22:55;;;;;;;11.48;8.30;;;;;;;;;;4980494;28;20081;-45
2021/09/18 00:25:22;;;;;;;9.25;7.18;;;;;;;;;;4992853;28;20038;-46
2021/09/18 00:27:48;;;;;;;10.60;8.10;;;;;;;;;;4992874;28;20683;-46
2021/09/18 00:30:15;;;;;;;10.65;8.25;;;;;;;;;;4976162;28;20039;-46
2021/09/18 00:32:42;;;;;;;11.40;8.15;;;;;;;;;;4974655;28;20126;-47
2021/09/18 00:35:09;;;;;;;13.95;9.27;;;;;;;;;;4972582;28;20362;-46
2021/09/18 00:37:36;;;;;;;10.70;8.20;;;;;;;;;;4980627;28;20046;-47
2021/09/18 00:40:03;;;;;;;12.50;9.40;;;;;;;;;;4993967;28;20076;-48
2021/09/18 00:42:30;;;;;;;11.98;8.63;;;;;;;;;;4993808;28;20049;-45
2021/09/18 00:44:58;;;;;;;13.85;9.63;;;;;;;;;;4993241;28;20053;-45
2021/09/18 00:47:25;;;;;;;11.40;8.20;;;;;;;;;;4994051;28;20133;-45
2021/09/18 00:49:52;;;;;;;11.48;8.40;;;;;;;;;;5027502;23;20049;-43
2021/09/18 00:52:19;;;;;;;12.00;8.98;;;;;;;;;;5032592;28;20409;-42
2021/09/18 00:54:47;;;;;;;11.15;8.77;;;;;;;;;;5031529;28;20055;-43
2021/09/18 00:57:14;;;;;;;12.25;9.38;;;;;;;;;;5032971;28;20060;-43
2021/09/18 00:59:41;;;;;;;12.45;8.18;;;;;;;;;;5032877;28;20080;-42
2021/09/18 01:02:08;;;;;;;12.48;8.30;;;;;;;;;;5032712;28;20041;-42
2021/09/18 01:04:36;;;;;;;13.40;9.13;;;;;;;;;;5032045;28;20064;-44
2021/09/18 01:07:04;;;;;;;11.52;8.77;;;;;;;;;;5032632;28;20033;-42
2021/09/18 01:09:31;;;;;;;12.35;8.95;;;;;;;;;;5032825;28;20073;-44
2021/09/18 01:11:58;;;;;;;10.88;9.05;;;;;;;;;;5032877;28;20042;-44
2021/09/18 01:14:25;;;;;;;12.85;8.40;;;;;;;;;;5031990;28;20046;-41
2021/09/18 01:16:53;;;;;;;12.75;8.40;;;;;;;;;;5014949;28;20065;-42
2021/09/18 01:19:20;;;;;;;11.90;7.85;;;;;;;;;;5012233;28;20148;-41
2021/09/18 01:21:48;;;;;;;12.88;8.93;;;;;;;;;;5012529;28;20041;-41
2021/09/18 01:24:16;;;;;;;11.32;8.60;;;;;;;;;;5018073;28;20141;-44
2021/09/18 01:26:42;;;;;;;13.18;8.77;;;;;;;;;;5032148;28;20038;-41
2021/09/18 01:29:09;;;;;;;10.52;8.48;;;;;;;;;;5032030;28;20117;-41
2021/09/18 01:31:38;;;;;;;11.10;7.95;;;;;;;;;;5032089;28;20108;-43
2021/09/18 01:34:05;;;;;;;12.20;8.02;;;;;;;;;;5031319;28;20045;-41
2021/09/18 01:36:31;;;;;;;9.65;7.00;;;;;;;;;;5031929;28;20128;-41
2021/09/18 01:38:58;;;;;;;9.80;7.22;;;;;;;;;;5030989;28;20055;-41
2021/09/18 01:41:29;;;;;;;9.48;6.88;;;;;;;;;;5031897;28;20069;-41
2021/09/18 01:43:55;;;;;;;11.13;8.13;;;;;;;;;;5031041;28;20046;-43
2021/09/18 01:46:22;;;;;;;11.05;7.35;;;;;;;;;;5031334;28;20041;-41
2021/09/18 01:48:49;;;;;;;10.18;7.82;;;;;;;;;;5032188;28;20565;-42
2021/09/18 01:51:16;;;;;;;10.80;8.15;;;;;;;;;;5031838;28;20038;-40
2021/09/18 01:53:43;;;;;;;10.27;7.93;;;;;;;;;;5031302;28;20037;-41
2021/09/18 01:56:10;;;;;;;11.18;7.55;;;;;;;;;;5026071;28;20423;-40
2021/09/18 01:58:36;;;;;;;9.75;7.78;;;;;;;;;;5013951;28;20141;-41
2021/09/18 02:01:03;;;;;;;9.75;7.13;;;;;;;;;;5013671;28;20049;-45
2021/09/18 02:03:31;;;;;;;9.80;7.72;;;;;;;;;;5012719;28;20037;-40
2021/09/18 02:05:58;;;;;;;11.70;7.45;;;;;;;;;;5011786;28;20050;-44
2021/09/18 02:08:25;;;;;;;12.05;7.85;;;;;;;;;;5012406;28;20077;-40
2021/09/18 02:10:53;;;;;;;10.60;7.78;;;;;;;;;;5011723;28;20530;-41
2021/09/18 02:13:20;;;;;;;10.65;8.40;;;;;;;;;;5010812;28;20561;-41
2021/09/18 02:15:47;;;;;;;12.07;8.23;;;;;;;;;;5011819;28;20561;-41
2021/09/18 02:18:14;;;;;;;9.43;7.05;;;;;;;;;;5011514;28;20069;-40
2021/09/18 02:20:41;;;;;;;12.35;7.30;;;;;;;;;;5011557;28;20134;-41
2021/09/18 02:23:10;;;;;;;9.48;6.72;;;;;;;;;;5010796;28;20129;-42
2021/09/18 02:25:37;;;;;;;10.60;7.78;;;;;;;;;;5011835;28;20047;-43
2021/09/18 02:28:04;;;;;;;10.48;7.50;;;;;;;;;;5012029;28;20061;-45
2021/09/18 02:30:33;;;;;;;9.02;7.13;;;;;;;;;;5030958;28;20044;-41
2021/09/18 02:33:01;;;;;;;14.88;7.55;;;;;;;;;;5031037;28;20115;-41
2021/09/18 02:35:29;;;;;;;11.57;7.60;;;;;;;;;;5030777;28;20095;-41
2021/09/18 02:37:56;;;;;;;9.68;6.90;;;;;;;;;;5021235;28;20042;-39
2021/09/18 02:40:24;;;;;;;11.57;7.30;;;;;;;;;;5011313;28;20041;-42
2021/09/18 02:42:52;;;;;;;9.18;7.40;;;;;;;;;;5010947;28;20053;-40
2021/09/18 02:45:19;;;;;;;11.75;7.97;;;;;;;;;;5010791;28;20038;-40
2021/09/18 02:47:47;;;;;;;10.38;7.20;;;;;;;;;;5031062;28;20046;-40
2021/09/18 02:50:15;;;;;;;11.10;7.68;;;;;;;;;;5030426;28;20406;-40
2021/09/18 02:52:42;;;;;;;11.00;7.10;;;;;;;;;;5031101;28;20037;-43
2021/09/18 02:55:10;;;;;;;9.93;7.05;;;;;;;;;;5029750;28;20041;-42
2021/09/18 02:57:37;;;;;;;11.55;8.13;;;;;;;;;;5030750;28;20077;-40
2021/09/18 03:00:04;;;;;;;12.43;7.53;;;;;;;;;;5030094;28;20136;-41
2021/09/18 03:02:31;;;;;;;10.98;6.80;;;;;;;;;;5030739;28;20123;-40
2021/09/18 03:04:59;;;;;;;10.45;7.05;;;;;;;;;;5029986;28;20045;-41
2021/09/18 03:07:29;;;;;;;9.52;7.00;;;;;;;;;;5030123;28;20513;-43
2021/09/18 03:09:57;;;;;;;9.60;7.35;;;;;;;;;;5030339;28;20048;-40
2021/09/18 03:12:24;;;;;;;9.75;7.18;;;;;;;;;;5030599;28;20099;-41
2021/09/18 03:14:51;;;;;;;8.48;6.72;;;;;;;;;;5030092;28;20124;-41
2021/09/18 03:17:18;;;;;;;13.13;6.97;;;;;;;;;;5030108;28;20483;-40
2021/09/18 03:19:45;;;;;;;11.63;7.68;;;;;;;;;;5030710;28;20053;-41
2021/09/18 03:22:11;;;;;;;10.07;7.60;;;;;;;;;;5030563;28;20148;-42
2021/09/18 03:24:38;;;;;;;10.98;8.27;;;;;;;;;;5029764;28;20095;-41
2021/09/18 03:27:05;;;;;;;11.63;7.35;;;;;;;;;;5024824;28;20042;-41
2021/09/18 03:29:32;;;;;;;11.48;7.63;;;;;;;;;;5023022;28;20049;-41
2021/09/18 03:31:59;;;;;;;13.35;8.00;;;;;;;;;;5030522;28;20049;-40
2021/09/18 03:34:26;;;;;;;12.68;8.50;;;;;;;;;;5029986;28;20042;-41
2021/09/18 03:36:52;;;;;;;10.05;7.55;;;;;;;;;;5029874;28;20095;-41
2021/09/18 03:39:19;;;;;;;12.60;7.88;;;;;;;;;;5030379;28;20057;-40
2021/09/18 03:41:46;;;;;;;11.93;8.73;;;;;;;;;;5030448;28;20049;-41
2021/09/18 03:44:13;;;;;;;14.70;8.90;;;;;;;;;;5029057;28;20045;-41
2021/09/18 03:46:40;;;;;;;11.93;8.18;;;;;;;;;;5030424;28;20037;-40
2021/09/18 03:49:06;;;;;;;11.43;8.40;;;;;;;;;;5030289;28;20057;-44
2021/09/18 03:51:33;;;;;;;14.13;8.75;;;;;;;;;;5029069;28;20045;-41
2021/09/18 03:54:00;;;;;;;14.23;9.48;;;;;;;;;;5018028;28;20042;-43
2021/09/18 03:56:27;;;;;;;15.98;9.65;;;;;;;;;;5010545;28;20054;-41
2021/09/18 03:58:54;;;;;;;14.43;9.00;;;;;;;;;;5018146;28;20058;-40
2021/09/18 04:01:20;;;;;;;12.18;8.60;;;;;;;;;;5031764;28;20410;-42
2021/09/18 04:03:47;;;;;;;13.10;8.40;;;;;;;;;;5032887;28;20130;-41
2021/09/18 04:06:14;;;;;;;12.20;8.63;;;;;;;;;;5033568;28;20040;-42
2021/09/18 04:08:41;;;;;;;11.73;8.50;;;;;;;;;;5033104;28;20041;-42
2021/09/18 04:11:09;;;;;;;11.55;8.07;;;;;;;;;;5033661;28;20045;-42
2021/09/18 04:13:36;;;;;;;10.52;7.65;;;;;;;;;;5032791;28;20096;-40
2021/09/18 04:16:03;;;;;;;14.88;8.75;;;;;;;;;;5027801;28;20503;-41
2021/09/18 04:18:30;;;;;;;12.02;8.05;;;;;;;;;;5013585;28;20045;-43
2021/09/18 04:20:56;;;;;;;15.05;9.38;;;;;;;;;;5013777;28;20064;-42
2021/09/18 04:23:23;;;;;;;11.10;8.43;;;;;;;;;;5014681;28;20073;-43
2021/09/18 04:25:50;;;;;;;12.45;8.38;;;;;;;;;;5033394;28;20434;-42
2021/09/18 04:28:17;;;;;;;11.15;7.75;;;;;;;;;;5031532;28;20245;-41
2021/09/18 04:30:44;;;;;;;11.20;7.90;;;;;;;;;;5033098;28;20037;-44
2021/09/18 04:33:10;;;;;;;10.90;7.72;;;;;;;;;;5032398;28;20498;-40
2021/09/18 04:35:37;;;;;;;9.30;7.07;;;;;;;;;;5033165;28;20530;-42
2021/09/18 04:38:05;;;;;;;10.60;7.82;;;;;;;;;;5022126;28;20050;-41
2021/09/18 04:40:32;;;;;;;12.93;8.80;;;;;;;;;;5013502;28;20069;-41
2021/09/18 04:42:59;;;;;;;12.73;8.27;;;;;;;;;;5013320;28;20050;-41
2021/09/18 04:45:26;;;;;;;10.57;8.00;;;;;;;;;;5012443;28;20038;-42
2021/09/18 04:47:53;;;;;;;12.82;8.00;;;;;;;;;;5013678;28;20049;-41
2021/09/18 04:50:20;;;;;;;10.85;8.07;;;;;;;;;;5013040;28;20187;-42
2021/09/18 04:52:47;;;;;;;11.68;8.38;;;;;;;;;;5014319;28;20061;-42
2021/09/18 04:55:14;;;;;;;11.93;8.40;;;;;;;;;;5012914;28;20065;-42
2021/09/18 04:57:41;;;;;;;10.63;7.32;;;;;;;;;;5028352;28;20045;-42
2021/09/18 05:00:08;;;;;;;12.05;8.23;;;;;;;;;;5015954;28;20050;-42
2021/09/18 05:02:35;;;;;;;10.13;7.72;;;;;;;;;;5013751;28;20041;-46
2021/09/18 05:05:04;;;;;;;8.82;6.82;;;;;;;;;;5012708;28;20053;-47
2021/09/18 05:07:31;;;;;;;10.13;7.35;;;;;;;;;;5023256;28;20033;-42
2021/09/18 05:09:58;;;;;;;10.70;7.82;;;;;;;;;;5032511;28;20038;-43
2021/09/18 05:12:25;;;;;;;11.50;7.57;;;;;;;;;;5032380;28;20037;-45
2021/09/18 05:14:52;;;;;;;12.65;8.10;;;;;;;;;;5031353;28;20753;-42
2021/09/18 05:17:18;;;;;;;12.82;8.05;;;;;;;;;;5032671;28;20072;-42
2021/09/18 05:19:45;;;;;;;13.95;8.43;;;;;;;;;;5032113;28;20103;-41
2021/09/18 05:22:12;;;;;;;12.52;8.55;;;;;;;;;;5032456;28;20061;-41
2021/09/18 05:24:39;;;;;;;11.13;7.57;;;;;;;;;;5031655;28;20041;-42
2021/09/18 05:27:06;;;;;;;11.15;7.85;;;;;;;;;;5032372;28;20041;-43
2021/09/18 05:29:33;;;;;;;11.95;7.47;;;;;;;;;;5032420;28;20052;-41
2021/09/18 05:32:01;;;;;;;13.43;8.65;;;;;;;;;;5033857;28;20072;-41
2021/09/18 05:34:28;;;;;;;11.05;7.85;;;;;;;;;;5033612;28;20394;-43
2021/09/18 05:36:54;;;;;;;13.88;8.25;;;;;;;;;;5032204;28;20041;-41
2021/09/18 05:39:21;;;;;;;11.55;7.57;;;;;;;;;;5031474;28;20454;-42
2021/09/18 05:41:48;;;;;;;9.13;6.85;;;;;;;;;;5032436;28;20041;-42
2021/09/18 05:44:15;;;;;;;9.68;7.53;;;;;;;;;;5031420;28;20053;-41
2021/09/18 05:46:42;;;;;;;9.63;6.63;;;;;;;;;;5030797;28;20450;-42
2021/09/18 05:49:09;;;;;;;9.80;6.93;;;;;;;;;;5031179;28;20041;-41
2021/09/18 05:51:36;;;;;;;12.07;7.13;;;;;;;;;;5031861;28;20483;-42
2021/09/18 05:54:03;;;;;;;9.75;7.05;;;;;;;;;;5031290;28;20049;-42
2021/09/18 05:56:30;;;;;;;11.13;7.10;;;;;;;;;;5031270;28;20078;-41
2021/09/18 05:59:02;;;;;;;9.02;6.75;;;;;;;;;;5031103;28;20116;-41
2021/09/18 06:01:29;;;;;;;9.23;6.32;;;;;;;;;;5031523;28;20087;-42
2021/09/18 06:03:56;;;;;;;10.23;6.72;;;;;;;;;;5030859;28;20056;-42
2021/09/18 06:06:23;;;;;;;10.93;6.97;;;;;;;;;;5031056;28;20068;-42
2021/09/18 06:08:55;;;;;;;9.20;6.70;;;;;;;;;;5009436;28;20046;-42
2021/09/18 06:11:23;;;;;;;10.15;6.38;;;;;;;;;;5011593;28;20279;-45
2021/09/18 06:13:50;;;;;;;11.82;6.95;;;;;;;;;;5010991;28;20078;-43
2021/09/18 06:16:17;;;;;;;11.13;6.38;;;;;;;;;;5025045;28;20435;-42
2021/09/18 06:18:44;;;;;;;10.73;7.35;;;;;;;;;;5031396;28;20045;-41
2021/09/18 06:21:10;;;;;;;9.38;6.38;;;;;;;;;;5031410;28;20049;-41
2021/09/18 06:23:37;;;;;;;9.65;7.43;;;;;;;;;;5030052;28;20495;-42
2021/09/18 06:26:04;;;;;;;11.13;7.22;;;;;;;;;;5031497;28;20077;-43
2021/09/18 06:28:32;;;;;;;11.15;7.88;;;;;;;;;;5027012;28;20104;-45
2021/09/18 06:31:00;;;;;;;10.25;7.78;;;;;;;;;;5011494;28;20057;-43
2021/09/18 06:33:27;;;;;;;9.13;7.38;;;;;;;;;;5010731;28;20049;-41
2021/09/18 06:35:54;;;;;;;11.05;8.30;;;;;;;;;;5011565;28;20609;-42
2021/09/18 06:38:24;;;;;;;11.90;8.70;;;;;;;;;;5011736;28;20125;-42
2021/09/18 06:40:51;;;;;;;11.27;8.23;;;;;;;;;;5011528;28;20100;-42
2021/09/18 06:43:19;;;;;;;13.75;9.27;;;;;;;;;;5010854;28;20073;-43
2021/09/18 06:45:46;;;;;;;11.95;8.57;;;;;;;;;;5015399;28;20038;-41
2021/09/18 06:48:13;;;;;;;12.75;9.13;;;;;;;;;;5030862;28;20582;-42
2021/09/18 06:50:40;;;;;;;14.90;9.15;;;;;;;;;;5031303;28;20041;-41
2021/09/18 06:53:07;;;;;;;15.35;9.65;;;;;;;;;;5030560;28;20091;-42
2021/09/18 06:55:34;;;;;;;13.25;10.25;;;;;;;;;;5030742;28;20056;-41
2021/09/18 06:58:02;;;;;;;13.55;9.38;;;;;;;;;;5030564;28;20053;-41
2021/09/18 07:00:29;;;;;;;16.00;10.00;;;;;;;;;;5031758;28;20042;-41
2021/09/18 07:02:56;;;;;;;13.90;9.25;;;;;;;;;;5033494;28;20475;-42
2021/09/18 07:05:23;;;;;;;11.75;8.95;;;;;;;;;;5032375;28;20068;-43
2021/09/18 07:07:50;;;;;;;14.57;9.43;;;;;;;;;;5033396;28;20117;-41
2021/09/18 07:10:17;;;;;;;16.67;9.68;;;;;;;;;;5032732;28;20057;-41
2021/09/18 07:12:43;;;;;;;15.38;9.70;;;;;;;;;;5033365;28;20495;-41
2021/09/18 07:15:11;;;;;;;14.75;10.35;;;;;;;;;;5028855;28;20037;-41
2021/09/18 07:17:38;;;;;;;13.55;9.77;;;;;;;;;;5011226;28;20141;-41
2021/09/18 07:20:06;;;;;;;13.15;9.20;;;;;;;;;;5010618;28;20046;-42
2021/09/18 07:22:33;;;;;;;13.18;9.77;;;;;;;;;;5011105;28;20053;-49
2021/09/18 07:24:59;;;;;;;13.68;8.98;;;;;;;;;;5026273;28;20070;-44
2021/09/18 07:27:26;;;;;;;13.30;9.85;;;;;;;;;;5011000;28;20088;-43
2021/09/18 07:29:53;;;;;;;13.40;9.10;;;;;;;;;;5026694;28;20050;-44
2021/09/18 07:32:20;;;;;;;11.80;9.32;;;;;;;;;;5030514;28;20049;-44
2021/09/18 07:34:47;;;;;;;16.23;9.25;;;;;;;;;;5030256;28;20034;-44
2021/09/18 07:37:15;;;;;;;11.60;9.10;;;;;;;;;;5026872;28;20065;-46
2021/09/18 07:39:42;;;;;;;11.32;8.23;;;;;;;;;;5014793;28;20070;-45
2021/09/18 07:42:09;;;;;;;15.15;8.98;;;;;;;;;;5015314;28;20104;-47
2021/09/18 07:44:36;;;;;;;12.38;8.82;;;;;;;;;;5014372;28;20053;-46
2021/09/18 07:47:03;;;;;;;12.73;8.88;;;;;;;;;;5029426;28;20045;-44
2021/09/18 07:49:30;;;;;;;12.82;8.35;;;;;;;;;;5034045;28;20065;-47
2021/09/18 07:51:57;;;;;;;10.68;8.35;;;;;;;;;;5034562;28;20137;-43
2021/09/18 07:54:23;;;;;;;11.63;8.60;;;;;;;;;;5022334;28;20045;-44
2021/09/18 07:56:50;;;;;;;11.75;8.70;;;;;;;;;;5013494;28;20112;-44
2021/09/18 07:59:17;;;;;;;11.07;8.68;;;;;;;;;;5015124;28;20060;-45
2021/09/18 08:01:44;;;;;;;12.43;8.18;;;;;;;;;;5014674;28;20053;-45
2021/09/18 08:04:11;;;;;;;12.13;9.13;;;;;;;;;;5013703;28;20049;-44
2021/09/18 08:06:38;;;;;;;11.20;8.60;;;;;;;;;;5014431;28;20046;-45
2021/09/18 08:09:05;;;;;;;12.30;8.82;;;;;;;;;;5014717;28;20046;-49
2021/09/18 08:11:33;;;;;;;11.20;8.30;;;;;;;;;;5014394;28;20038;-46
2021/09/18 08:14:02;;;;;;;12.95;8.48;;;;;;;;;;5013527;28;20478;-44
2021/09/18 08:16:30;;;;;;;10.50;7.65;;;;;;;;;;5012901;28;20063;-44
2021/09/18 08:18:57;;;;;;;9.75;8.02;;;;;;;;;;5028100;28;20048;-44
2021/09/18 08:21:24;;;;;;;11.57;9.00;;;;;;;;;;5033825;28;20049;-46
2021/09/18 08:23:51;;;;;;;10.55;8.15;;;;;;;;;;5032996;28;20556;-46
2021/09/18 08:26:18;;;;;;;10.38;7.55;;;;;;;;;;5032928;28;20463;-42
2021/09/18 08:28:45;;;;;;;12.18;8.50;;;;;;;;;;5032777;28;20096;-43
2021/09/18 08:31:12;;;;;;;10.07;8.45;;;;;;;;;;5033463;28;20037;-45
2021/09/18 08:33:40;;;;;;;11.27;7.78;;;;;;;;;;5033014;28;20124;-44
2021/09/18 08:36:07;;;;;;;10.38;8.10;;;;;;;;;;5032590;28;20053;-47
2021/09/18 08:38:34;;;;;;;9.32;8.00;;;;;;;;;;5013452;28;20498;-45
2021/09/18 08:41:00;;;;;;;9.70;7.53;;;;;;;;;;5013360;28;20455;-46
2021/09/18 08:43:27;;;;;;;11.25;8.20;;;;;;;;;;5012939;28;20100;-45
2021/09/18 08:45:54;;;;;;;13.60;8.45;;;;;;;;;;5015623;28;20624;-45
2021/09/18 08:48:23;;;;;;;14.27;8.57;;;;;;;;;;5033035;28;20044;-45
2021/09/18 08:50:51;;;;;;;13.07;7.63;;;;;;;;;;5032910;28;20042;-48
2021/09/18 08:53:21;;;;;;;9.60;7.05;;;;;;;;;;5032675;28;20095;-45
2021/09/18 08:55:53;;;;;;;10.57;8.57;;;;;;;;;;5032505;28;20057;-45
2021/09/18 08:58:20;;;;;;;8.70;6.93;;;;;;;;;;5032613;28;20490;-44
2021/09/18 09:00:48;;;;;;;10.15;7.40;;;;;;;;;;5033313;28;20072;-45
2021/09/18 09:03:21;;;;;;;10.93;6.72;;;;;;;;;;5032504;28;20049;-44
2021/09/18 09:05:49;;;;;;;10.05;6.45;;;;;;;;;;5033014;28;20069;-46
2021/09/18 09:08:17;;;;;;;9.77;6.65;;;;;;;;;;5032218;28;20095;-48
2021/09/18 09:10:45;;;;;;;9.18;6.47;;;;;;;;;;5031850;28;20391;-44
2021/09/18 09:13:22;;;;;;;10.13;6.57;;;;;;;;;;5031959;28;20045;-45
2021/09/18 09:15:51;;;;;;;8.63;7.00;;;;;;;;;;5032614;28;20065;-46
2021/09/18 09:18:19;;;;;;;7.55;6.53;;;;;;;;;;5031923;28;20061;-44
2021/09/18 09:21:09;;;;;;;9.80;5.78;;;;;;;;;;5032239;28;20041;-46
2021/09/18 09:23:36;;;;;;;7.75;5.72;;;;;;;;;;5031636;28;20128;-45
2021/09/18 09:26:03;;;;;;;7.28;5.68;;;;;;;;;;5026942;28;20129;-47
2021/09/18 09:28:31;;;;;;;8.38;5.60;;;;;;;;;;5013601;28;20076;-45
2021/09/18 09:31:17;;;;;;;8.45;5.50;;;;;;;;;;5012330;28;20089;-44
2021/09/18 09:33:56;;;;;;;6.82;5.70;;;;;;;;;;5026780;28;20507;-44
2021/09/18 09:36:23;;;;;;;7.30;4.85;;;;;;;;;;5012478;28;20137;-44
2021/09/18 09:38:55;;;;;;;6.43;5.15;;;;;;;;;;5025713;28;20046;-47
2021/09/18 09:41:28;;;;;;;6.22;4.57;;;;;;;;;;5030642;28;20498;-47
2021/09/18 09:43:55;;;;;;;6.40;4.03;;;;;;;;;;5031436;28;20494;-45
2021/09/18 09:46:22;;;;;;;32.20;4.18;;;;;;;;;;5031662;28;20136;-44
2021/09/18 09:48:48;;;;;;;3.90;2.97;;;;;;;;;;5032068;28;20052;-42
2021/09/18 09:51:24;;;;;;;4.38;3.15;;;;;;;;;;5031690;28;20095;-45
2021/09/18 09:53:51;;;;;;;3.25;2.10;;;;;;;;;;5031302;28;20072;-46
2021/09/18 09:56:22;;;;;;;3.33;1.70;;;;;;;;;;5031282;28;20111;-48
2021/09/18 09:58:52;;;;;;;3.42;1.77;;;;;;;;;;5030423;28;20499;-47
2021/09/18 10:01:19;;;;;;;3.20;1.80;;;;;;;;;;5031625;28;20073;-45
2021/09/18 10:03:46;;;;;;;3.30;2.35;;;;;;;;;;5031210;28;20099;-45
2021/09/18 10:06:14;;;;;;;3.15;2.10;;;;;;;;;;5031746;28;20529;-46
2021/09/18 10:08:49;;;;;;;4.72;3.05;;;;;;;;;;5020104;28;20040;-46
2021/09/18 10:11:17;;;;;;;3.38;2.38;;;;;;;;;;5012271;28;20367;-47
2021/09/18 10:13:46;;;;;;;3.53;2.60;;;;;;;;;;5026800;28;20050;-45
2021/09/18 10:16:13;;;;;;;5.90;2.60;;;;;;;;;;5012705;28;20046;-47
2021/09/18 10:19:00;;;;;;;5.22;2.40;;;;;;;;;;5012683;28;20050;-45
2021/09/18 10:24:35;;;;;;;3.90;2.85;;;;;;;;;;5012141;28;20045;-45
2021/09/18 10:27:12;;;;;;;3.83;2.75;;;;;;;;;;5024131;28;20045;-47
2021/09/18 10:29:39;;;;;;;3.63;2.53;;;;;;;;;;5024555;28;20045;-46
2021/09/18 10:32:05;;;;;;;3.50;2.72;;;;;;;;;;5031934;28;20124;-48
2021/09/18 10:34:32;;;;;;;4.38;3.13;;;;;;;;;;5031400;28;20045;-44
2021/09/18 10:36:59;;;;;;;5.82;3.35;;;;;;;;;;5032245;28;20387;-49
2021/09/18 10:39:26;;;;;;;4.78;3.28;;;;;;;;;;5018849;28;20081;-44
2021/09/18 10:41:54;;;;;;;4.43;2.95;;;;;;;;;;5011950;28;20054;-44
2021/09/18 10:44:22;;;;;;;5.30;3.10;;;;;;;;;;5011485;28;20088;-44
2021/09/18 10:46:50;;;;;;;3.90;2.75;;;;;;;;;;5018458;28;20562;-45
2021/09/18 10:49:36;;;;;;;7.70;2.95;;;;;;;;;;5031870;28;20136;-46
2021/09/18 10:52:15;;;;;;;4.28;3.10;;;;;;;;;;5031002;28;20103;-47
2021/09/18 10:55:05;;;;;;;5.30;3.95;;;;;;;;;;5062770;28;20470;-45
2021/09/18 10:57:45;;;;;;;2.67;1.83;;;;;;;;;;5069468;28;20403;-49
2021/09/18 11:00:23;;;;;;;2.88;1.80;;;;;;;;;;5089888;27;20425;-47
2021/09/18 11:03:02;;;;;;;2.90;2.03;;;;;;;;;;5069837;28;20411;-47
2021/09/18 11:05:40;;;;;;;2.85;1.80;;;;;;;;;;5070918;28;20416;-45
2021/09/18 11:08:20;;;;;;;2.60;2.00;;;;;;;;;;5065699;28;20936;-44
2021/09/18 11:10:59;;;;;;;1.88;1.50;;;;;;;;;;5069516;28;20418;-46
2021/09/18 11:13:43;;;;;;;2.45;1.50;;;;;;;;;;5068202;28;20736;-44
2021/09/18 11:16:25;;;;;;;2.85;1.60;;;;;;;;;;5069843;28;20430;-46
2021/09/18 11:19:10;;;;;;;2.42;1.80;;;;;;;;;;5067733;28;20415;-45
2021/09/18 11:21:50;;;;;;;4.18;1.90;;;;;;;;;;5069398;28;20882;-46
2021/09/18 11:24:28;;;;;;;4.35;2.47;;;;;;;;;;5108966;27;20401;-45
2021/09/18 11:27:08;;;;;;;3.95;2.75;;;;;;;;;;5067974;28;20431;-45
2021/09/18 11:29:49;;;;;;;3.13;2.15;;;;;;;;;;5068366;28;20447;-45
2021/09/18 11:32:32;;;;;;;2.67;2.08;;;;;;;;;;5069367;28;20419;-45
2021/09/18 11:35:09;;;;;;;3.90;2.90;;;;;;;;;;5068176;28;20797;-46
2021/09/18 11:37:47;;;;;;;3.40;2.70;;;;;;;;;;5060104;28;20812;-46
2021/09/18 11:40:26;;;;;;;3.67;2.30;;;;;;;;;;5068563;28;20414;-48
2021/09/18 11:43:04;;;;;;;3.47;2.30;;;;;;;;;;5068298;28;20430;-46
2021/09/18 11:45:42;;;;;;;3.28;2.20;;;;;;;;;;5068590;28;20427;-47
2021/09/18 11:48:25;;;;;;;3.58;2.42;;;;;;;;;;5054903;28;20424;-47
2021/09/18 11:51:05;;;;;;;3.42;2.47;;;;;;;;;;5069105;28;20422;-48
2021/09/18 11:53:43;;;;;;;3.45;2.30;;;;;;;;;;5068258;28;20880;-47
2021/09/18 11:56:21;;;;;;;5.32;2.53;;;;;;;;;;5059235;28;20863;-46
2021/09/18 11:59:09;;;;;;;3.47;2.50;;;;;;;;;;5059155;28;20440;-44
2021/09/18 12:01:48;;;;;;;3.70;2.50;;;;;;;;;;5129125;27;20142;-44
2021/09/18 12:04:37;;;;;;;2.80;1.90;;;;;;;;;;5128378;27;20151;-45
2021/09/18 12:07:15;;;;;;;3.45;1.80;;;;;;;;;;5066953;28;20427;-45
2021/09/18 12:09:53;;;;;;;3.50;2.05;;;;;;;;;;5068042;28;20404;-47
2021/09/18 12:12:31;;;;;;;3.85;2.00;;;;;;;;;;5108670;27;20409;-47
2021/09/18 12:15:10;;;;;;;3.53;2.72;;;;;;;;;;5053366;28;20451;-46
2021/09/18 12:17:47;;;;;;;3.42;2.60;;;;;;;;;;5067881;28;20778;-48
2021/09/18 12:20:26;;;;;;;3.30;2.47;;;;;;;;;;5067842;28;20892;-50
2021/09/18 12:23:04;;;;;;;3.78;2.13;;;;;;;;;;5066409;28;20435;-45
2021/09/18 12:25:51;;;;;;;3.30;2.40;;;;;;;;;;5068056;28;20410;-45
2021/09/18 12:28:29;;;;;;;2.67;1.85;;;;;;;;;;5063988;28;20424;-45
2021/09/18 12:31:14;;;;;;;2.75;1.98;;;;;;;;;;5068082;28;20407;-45
2021/09/18 12:33:52;;;;;;;3.05;2.03;;;;;;;;;;5067562;28;20415;-44
2021/09/18 12:36:31;;;;;;;3.47;1.98;;;;;;;;;;5064433;28;20435;-44
2021/09/18 12:39:10;;;;;;;2.85;1.90;;;;;;;;;;5129221;27;20403;-44
2021/09/18 12:41:47;;;;;;;2.10;1.70;;;;;;;;;;5068390;28;20406;-46
2021/09/18 12:44:32;;;;;;;2.05;1.60;;;;;;;;;;5067523;28;20399;-46
2021/09/18 12:47:20;;;;;;;2.67;1.85;;;;;;;;;;5056819;28;20820;-45
2021/09/18 12:50:14;;;;;;;3.20;1.88;;;;;;;;;;5108966;27;20148;-45
2021/09/18 12:52:52;;;;;;;3.40;1.40;;;;;;;;;;5149966;27;20410;-49
2021/09/18 12:55:19;;;;;;;2.25;1.63;;;;;;;;;;5141454;27;20051;-51
2021/09/18 12:57:57;;;;;;;2.40;1.75;;;;;;;;;;5090710;27;20414;-47
2021/09/18 13:00:55;;;;;;;2.42;1.55;;;;;;;;;;5069407;28;20403;-49
2021/09/18 13:03:34;;;;;;;1.60;1.40;;;;;;;;;;5069778;28;20158;-48
2021/09/18 13:06:13;;;;;;;2.33;1.60;;;;;;;;;;5070550;28;20782;-48
2021/09/18 13:08:55;;;;;;;3.22;1.48;;;;;;;;;;5059619;28;20436;-49
2021/09/18 13:11:36;;;;;;;1.65;1.35;;;;;;;;;;5070367;28;20455;-49
2021/09/18 13:14:15;;;;;;;2.25;1.40;;;;;;;;;;5089548;27;20409;-46
2021/09/18 13:16:53;;;;;;;2.50;1.58;;;;;;;;;;5064373;28;20427;-45
2021/09/18 13:19:44;;;;;;;1.88;1.48;;;;;;;;;;5067690;28;20399;-46
2021/09/18 13:22:21;;;;;;;2.22;1.33;;;;;;;;;;5087949;27;20413;-45
2021/09/18 13:25:00;;;;;;;3.45;1.70;;;;;;;;;;5067158;28;20503;-44
2021/09/18 13:27:38;;;;;;;2.42;1.52;;;;;;;;;;5049878;28;20440;-42
2021/09/18 13:30:17;;;;;;;2.92;1.77;;;;;;;;;;5029903;28;20555;-42
2021/09/18 13:32:55;;;;;;;4.28;1.90;;;;;;;;;;5067939;28;20404;-46
2021/09/18 13:35:34;;;;;;;2.25;1.63;;;;;;;;;;5067729;28;20407;-45
2021/09/18 13:38:12;;;;;;;2.20;1.58;;;;;;;;;;5030385;28;20433;-43
2021/09/18 13:40:50;;;;;;;2.33;1.73;;;;;;;;;;5067827;28;20461;-44
2021/09/18 13:43:28;;;;;;;3.38;2.05;;;;;;;;;;5067228;28;20422;-43
2021/09/18 13:46:06;;;;;;;2.35;1.80;;;;;;;;;;5051082;28;20443;-46
2021/09/18 13:48:45;;;;;;;2.83;2.13;;;;;;;;;;5067798;28;20403;-44
2021/09/18 13:51:23;;;;;;;2.97;2.22;;;;;;;;;;5067584;28;20795;-44
2021/09/18 13:54:01;;;;;;;1.98;1.60;;;;;;;;;;5066092;28;20887;-45
2021/09/18 13:56:40;;;;;;;2.50;1.80;;;;;;;;;;5067985;28;20403;-42
2021/09/18 13:59:17;;;;;;;3.25;1.55;;;;;;;;;;5056845;28;20439;-43
2021/09/18 14:01:56;;;;;;;2.08;1.58;;;;;;;;;;5067749;28;20401;-45
2021/09/18 14:04:34;;;;;;;1.88;1.52;;;;;;;;;;5067351;28;20418;-46
2021/09/18 14:07:12;;;;;;;3.03;1.55;;;;;;;;;;5064786;28;20428;-46
2021/09/18 14:09:51;;;;;;;3.10;1.40;;;;;;;;;;5067888;28;20411;-41
2021/09/18 14:12:28;;;;;;;2.60;1.85;;;;;;;;;;5067861;28;20407;-43
2021/09/18 14:15:07;;;;;;;3.17;2.40;;;;;;;;;;5063421;28;20821;-44
2021/09/18 14:17:45;;;;;;;2.35;1.73;;;;;;;;;;5067840;28;20837;-42
2021/09/18 14:20:23;;;;;;;3.53;2.33;;;;;;;;;;5067764;28;20415;-43
2021/09/18 14:23:02;;;;;;;3.53;2.50;;;;;;;;;;5062361;28;20421;-44
2021/09/18 14:25:40;;;;;;;4.15;2.22;;;;;;;;;;5068139;28;20407;-45
2021/09/18 14:28:18;;;;;;;4.25;2.40;;;;;;;;;;5065119;28;20767;-46
2021/09/18 14:30:56;;;;;;;3.08;1.98;;;;;;;;;;5067887;28;20422;-46
2021/09/18 14:33:34;;;;;;;3.80;2.40;;;;;;;;;;5067158;28;20418;-45
2021/09/18 14:36:15;;;;;;;3.22;2.25;;;;;;;;;;5108226;27;20554;-45
2021/09/18 14:38:55;;;;;;;3.35;1.85;;;;;;;;;;5053956;28;20428;-48
2021/09/18 14:41:35;;;;;;;2.97;2.20;;;;;;;;;;5067911;28;20880;-46
2021/09/18 14:44:13;;;;;;;3.53;2.42;;;;;;;;;;5067465;28;20395;-46
2021/09/18 14:46:51;;;;;;;2.90;2.13;;;;;;;;;;5056085;28;20437;-45
2021/09/18 14:49:30;;;;;;;3.15;1.92;;;;;;;;;;5068197;28;20473;-45
2021/09/18 14:52:08;;;;;;;3.80;2.20;;;;;;;;;;5068330;28;20790;-45
2021/09/18 14:54:46;;;;;;;3.15;1.90;;;;;;;;;;5056613;28;20901;-44
2021/09/18 14:57:24;;;;;;;2.72;1.77;;;;;;;;;;5067845;28;20529;-44
2021/09/18 15:00:04;;;;;;;3.42;1.98;;;;;;;;;;5066628;28;20488;-46